Evans, Colorado
Current Conditions -  °F | °C
As of 4:15 PM on Thursday 27 Nov 2014 (Local Time) from KGXY Reporting Station
Clear Clear  
Wind Chill: 61°   Ceiling: Unl
Heat Index: 61°   Visibility: 10mi
Dew Point: 23°   Wind: 12mph
Humidity: 23%   Direction: 300°WNW
Pressure: 30.11"   Gusts: 20mph
Location:  40.38°N, 104.69°W
Report Text: KGXY 272315Z AUTO 30010G17KT 10SM CLR 16/M05 A3011 RMK AO1
Loading
Personal Weather Stations






























Interactive Weather Map New forecast layout! Learn more

10-Day Weather Forecast

Advertisements
Track Severe Weather on mobile